Time;durP1;ratioP1;P1;durP2;ratioP2;P2;SDS_P1;SDS_P2;PMS_P1;PMS_P2;Temp;Humidity;BMP_temperature;BMP_pressure;BME280_temperature;BME280_humidity;BME280_pressure;Samples;Min_cycle;Max_cycle;Signal;HPM_P1;HPM_P2
2021/12/19 00:02:27;;;;;;;;;;;19.90;58.30;;;;;;5005463;28;1898;-70
2021/12/19 00:08:27;;;;;;;;;;;19.90;58.30;;;;;;5001729;28;1071;-68
2021/12/19 00:10:09;;;;;;;;;;;19.90;58.40;;;;;;4991414;28;1132;-67
2021/12/19 00:12:34;;;;;;;;;;;19.90;58.40;;;;;;5013628;28;1425;-67
2021/12/19 00:15:00;;;;;;;;;;;19.90;58.40;;;;;;5013859;28;1296;-67
2021/12/19 00:17:25;;;;;;;;;;;19.90;58.50;;;;;;5007491;28;1474;-68
2021/12/19 00:19:51;;;;;;;;;;;19.90;58.40;;;;;;5002064;28;1902;-68
2021/12/19 00:22:16;;;;;;;;;;;19.90;58.50;;;;;;5013844;28;1291;-67
2021/12/19 00:24:42;;;;;;;;;;;19.90;58.50;;;;;;5001143;28;1068;-67
2021/12/19 00:27:07;;;;;;;;;;;19.90;58.50;;;;;;4999873;28;1376;-68
2021/12/19 00:29:32;;;;;;;;;;;19.80;58.50;;;;;;5012728;28;1267;-68
2021/12/19 00:31:58;;;;;;;;;;;19.80;58.50;;;;;;5007798;28;1334;-67
2021/12/19 00:34:23;;;;;;;;;;;19.80;58.50;;;;;;5006640;28;1049;-68
2021/12/19 00:36:49;;;;;;;;;;;19.80;58.50;;;;;;5007868;28;1316;-67
2021/12/19 00:39:14;;;;;;;;;;;19.80;58.50;;;;;;4993953;28;1288;-68
2021/12/19 00:41:40;;;;;;;;;;;19.80;58.60;;;;;;4993798;28;1902;-67
2021/12/19 00:44:10;;;;;;;;;;;19.80;58.60;;;;;;4993874;28;1320;-68
2021/12/19 00:46:43;;;;;;;;;;;19.80;58.60;;;;;;4994021;28;1318;-68
2021/12/19 00:49:09;;;;;;;;;;;19.80;58.60;;;;;;4993795;28;1260;-68
2021/12/19 00:51:34;;;;;;;;;;;19.80;58.60;;;;;;4994014;28;1319;-68
2021/12/19 00:53:59;;;;;;;;;;;19.80;58.60;;;;;;4993671;28;1336;-67
2021/12/19 00:56:25;;;;;;;;;;;19.80;58.60;;;;;;4994685;28;1290;-68
2021/12/19 00:58:51;;;;;;;;;;;19.80;58.70;;;;;;4993398;28;1306;-69
2021/12/19 01:01:16;;;;;;;;;;;19.80;58.70;;;;;;5000105;28;1961;-69
2021/12/19 01:03:46;;;;;;;;;;;19.80;58.80;;;;;;4995479;28;1441;-68
2021/12/19 01:06:12;;;;;;;;;;;19.80;58.80;;;;;;4980086;28;1325;-68
2021/12/19 01:08:37;;;;;;;;;;;19.70;58.70;;;;;;5003258;28;1332;-68
2021/12/19 01:11:03;;;;;;;;;;;19.70;58.70;;;;;;5013246;28;1277;-68
2021/12/19 01:13:28;;;;;;;;;;;19.80;58.80;;;;;;5012261;28;1327;-69
2021/12/19 01:15:56;;;;;;;;;;;19.70;58.80;;;;;;4993271;28;1283;-69
2021/12/19 01:18:22;;;;;;;;;;;19.70;58.80;;;;;;4989805;28;1128;-70
2021/12/19 01:20:47;;;;;;;;;;;19.70;58.80;;;;;;5008750;28;1914;-70
2021/12/19 01:23:13;;;;;;;;;;;19.70;58.80;;;;;;4995611;28;1300;-71
2021/12/19 01:25:38;;;;;;;;;;;19.70;58.80;;;;;;5006042;28;1296;-70
2021/12/19 01:28:04;;;;;;;;;;;19.70;58.80;;;;;;4985580;28;1226;-69
2021/12/19 01:30:29;;;;;;;;;;;19.70;58.80;;;;;;5002843;28;1200;-69
2021/12/19 01:32:54;;;;;;;;;;;19.70;58.80;;;;;;4993641;28;1327;-68
2021/12/19 01:35:20;;;;;;;;;;;19.70;58.90;;;;;;4993307;28;1454;-67
2021/12/19 01:37:46;;;;;;;;;;;19.70;58.90;;;;;;4993178;28;1297;-68
2021/12/19 01:40:12;;;;;;;;;;;19.70;58.90;;;;;;4992959;28;1898;-68
2021/12/19 01:42:38;;;;;;;;;;;19.70;58.90;;;;;;4984977;28;1240;-68
2021/12/19 01:45:04;;;;;;;;;;;19.70;58.90;;;;;;5012504;28;1313;-67
2021/12/19 01:47:29;;;;;;;;;;;19.70;58.90;;;;;;4995023;28;1340;-68
2021/12/19 01:49:55;;;;;;;;;;;19.70;58.90;;;;;;4993676;28;1332;-68
2021/12/19 01:52:21;;;;;;;;;;;19.70;58.90;;;;;;4993036;28;1335;-68
2021/12/19 01:54:46;;;;;;;;;;;19.70;58.90;;;;;;4993218;28;1360;-69
2021/12/19 01:57:11;;;;;;;;;;;19.70;58.90;;;;;;4992556;28;1280;-68
2021/12/19 01:59:37;;;;;;;;;;;19.70;59.00;;;;;;4991825;28;1423;-68
2021/12/19 02:02:03;;;;;;;;;;;19.70;59.00;;;;;;5004602;28;1927;-69
2021/12/19 02:04:30;;;;;;;;;;;19.60;59.00;;;;;;5012762;28;1118;-69
2021/12/19 02:06:56;;;;;;;;;;;19.60;58.90;;;;;;5012237;28;1275;-68
2021/12/19 02:09:22;;;;;;;;;;;19.60;59.00;;;;;;4991778;28;1314;-67
2021/12/19 02:11:47;;;;;;;;;;;19.60;59.00;;;;;;5004319;28;1281;-69
2021/12/19 02:14:13;;;;;;;;;;;19.60;59.00;;;;;;4993197;28;1351;-69
2021/12/19 02:16:38;;;;;;;;;;;19.60;59.00;;;;;;4992735;28;1323;-68
2021/12/19 02:19:04;;;;;;;;;;;19.60;59.00;;;;;;4992618;28;1420;-67
2021/12/19 02:21:29;;;;;;;;;;;19.60;59.00;;;;;;5012625;28;1954;-67
2021/12/19 02:23:58;;;;;;;;;;;19.60;59.00;;;;;;5012594;28;1307;-70
2021/12/19 02:26:23;;;;;;;;;;;19.60;59.00;;;;;;5015582;28;1319;-67
2021/12/19 02:28:49;;;;;;;;;;;19.60;59.00;;;;;;4998572;28;1385;-67
2021/12/19 02:31:14;;;;;;;;;;;19.60;59.00;;;;;;5003833;28;1316;-67
2021/12/19 02:33:43;;;;;;;;;;;19.60;59.00;;;;;;4996857;28;1306;-68
2021/12/19 02:39:33;;;;;;;;;;;19.60;59.00;;;;;;4982574;28;1045;-70
2021/12/19 02:49:39;;;;;;;;;;;19.70;58.90;;;;;;5015847;28;1300;-70
2021/12/19 02:52:14;;;;;;;;;;;19.70;58.80;;;;;;4997841;28;1415;-69
2021/12/19 02:54:39;;;;;;;;;;;19.70;58.70;;;;;;4997682;28;1426;-70
2021/12/19 02:57:05;;;;;;;;;;;19.70;58.60;;;;;;4986195;28;1386;-70
2021/12/19 02:59:31;;;;;;;;;;;19.80;58.60;;;;;;5013307;28;1309;-69
2021/12/19 03:01:57;;;;;;;;;;;19.80;58.50;;;;;;5015272;28;1958;-69
2021/12/19 03:04:22;;;;;;;;;;;19.80;58.40;;;;;;5015291;28;1336;-69
2021/12/19 03:06:47;;;;;;;;;;;19.90;58.40;;;;;;5015093;28;1068;-69
2021/12/19 03:09:16;;;;;;;;;;;19.90;58.30;;;;;;5010794;28;1132;-69
2021/12/19 03:12:08;;;;;;;;;;;19.90;58.30;;;;;;5015060;28;1357;-69
2021/12/19 03:20:03;;;;;;;;;;;20.00;58.10;;;;;;5004494;28;1910;-69
2021/12/19 03:22:28;;;;;;;;;;;20.00;58.10;;;;;;5015358;28;1818;-69
2021/12/19 03:24:54;;;;;;;;;;;20.00;58.00;;;;;;5015333;28;1264;-69
2021/12/19 03:27:19;;;;;;;;;;;20.00;58.00;;;;;;5014930;28;1331;-69
2021/12/19 03:29:45;;;;;;;;;;;20.00;58.00;;;;;;5014961;28;1344;-69
2021/12/19 03:32:10;;;;;;;;;;;20.00;57.90;;;;;;5011133;28;1374;-69
2021/12/19 03:34:35;;;;;;;;;;;20.00;57.90;;;;;;5008666;28;1319;-69
2021/12/19 03:37:01;;;;;;;;;;;20.00;57.90;;;;;;5005054;28;1209;-70
2021/12/19 03:39:34;;;;;;;;;;;20.10;57.90;;;;;;5005087;28;1224;-69
2021/12/19 03:41:59;;;;;;;;;;;20.10;57.90;;;;;;5002607;28;1890;-70
2021/12/19 03:44:25;;;;;;;;;;;20.10;57.90;;;;;;5005385;28;1212;-69
2021/12/19 03:46:50;;;;;;;;;;;20.10;57.80;;;;;;4990177;28;1288;-68
2021/12/19 03:49:18;;;;;;;;;;;20.10;57.80;;;;;;5005880;28;1233;-68
2021/12/19 03:51:44;;;;;;;;;;;20.10;57.80;;;;;;5006763;28;1269;-69
2021/12/19 03:54:09;;;;;;;;;;;20.10;57.80;;;;;;5005364;28;1233;-69
2021/12/19 03:56:34;;;;;;;;;;;20.10;57.80;;;;;;4999706;28;1369;-69
2021/12/19 03:59:00;;;;;;;;;;;20.10;57.80;;;;;;4994811;28;1334;-70
2021/12/19 04:01:25;;;;;;;;;;;20.10;57.80;;;;;;5002189;28;1894;-70
2021/12/19 04:03:51;;;;;;;;;;;20.10;57.80;;;;;;5014728;28;1197;-69
2021/12/19 04:06:16;;;;;;;;;;;20.10;57.80;;;;;;5013772;28;1379;-70
2021/12/19 04:08:42;;;;;;;;;;;20.10;57.70;;;;;;5009389;28;1161;-69
2021/12/19 04:11:07;;;;;;;;;;;20.10;57.80;;;;;;5014182;28;1056;-69
2021/12/19 04:13:33;;;;;;;;;;;20.10;57.70;;;;;;5013846;28;1292;-70
2021/12/19 04:15:58;;;;;;;;;;;20.10;57.70;;;;;;5013920;28;1139;-70
2021/12/19 04:18:23;;;;;;;;;;;20.10;57.70;;;;;;5014023;28;1096;-70
2021/12/19 04:20:49;;;;;;;;;;;20.10;57.70;;;;;;5005246;28;1964;-70
2021/12/19 04:23:14;;;;;;;;;;;20.10;57.70;;;;;;4995863;28;1404;-70
2021/12/19 04:25:40;;;;;;;;;;;20.10;57.70;;;;;;4994345;28;1077;-70
2021/12/19 04:28:05;;;;;;;;;;;20.10;57.70;;;;;;4994270;28;1313;-69
2021/12/19 04:30:31;;;;;;;;;;;20.10;57.70;;;;;;4994722;28;1482;-70
2021/12/19 04:33:07;;;;;;;;;;;20.10;57.70;;;;;;4987489;28;1272;-70
2021/12/19 04:35:34;;;;;;;;;;;20.10;57.70;;;;;;5013558;28;1273;-70
2021/12/19 04:38:39;;;;;;;;;;;20.10;57.60;;;;;;4994122;28;1224;-70
2021/12/19 04:55:09;;;;;;;;;;;20.20;57.60;;;;;;4952979;28;1373;-69
2021/12/19 05:00:12;;;;;;;;;;;20.20;57.60;;;;;;4988201;28;1902;-70
2021/12/19 05:05:46;;;;;;;;;;;20.20;57.60;;;;;;5013735;28;1076;-69
2021/12/19 05:16:04;;;;;;;;;;;20.20;57.60;;;;;;5013066;28;942;-70
2021/12/19 05:18:33;;;;;;;;;;;20.20;57.50;;;;;;4994636;28;1336;-69
2021/12/19 05:21:04;;;;;;;;;;;20.20;57.50;;;;;;4993258;28;1977;-69
2021/12/19 05:25:55;;;;;;;;;;;20.20;57.50;;;;;;4993293;28;1325;-69
2021/12/19 05:28:20;;;;;;;;;;;20.20;57.50;;;;;;4993408;28;1260;-69
2021/12/19 05:30:46;;;;;;;;;;;20.20;58.10;;;;;;4993572;28;1119;-70
2021/12/19 05:33:11;;;;;;;;;;;20.20;57.50;;;;;;4992938;28;1204;-69
2021/12/19 05:46:26;;;;;;;;;;;20.20;57.50;;;;;;5001244;28;936;-71
2021/12/19 05:48:53;;;;;;;;;;;20.20;57.50;;;;;;5002595;28;1400;-70
2021/12/19 05:51:18;;;;;;;;;;;20.20;57.50;;;;;;5012761;28;1341;-70
2021/12/19 05:53:44;;;;;;;;;;;20.20;57.50;;;;;;5012849;28;1368;-71
2021/12/19 05:56:09;;;;;;;;;;;20.20;57.50;;;;;;5012477;28;1305;-70
2021/12/19 05:58:35;;;;;;;;;;;20.20;57.50;;;;;;5012800;28;1066;-72
2021/12/19 06:01:00;;;;;;;;;;;20.20;57.50;;;;;;5016265;28;1969;-70
2021/12/19 06:03:25;;;;;;;;;;;20.20;57.50;;;;;;5016508;28;1320;-71
2021/12/19 06:05:51;;;;;;;;;;;20.20;57.50;;;;;;5016335;28;1241;-72
2021/12/19 06:08:16;;;;;;;;;;;20.20;57.50;;;;;;5014350;28;1016;-71
2021/12/19 06:10:42;;;;;;;;;;;20.20;57.40;;;;;;5014277;28;1339;-70
2021/12/19 06:13:07;;;;;;;;;;;20.20;57.40;;;;;;5016384;28;1411;-70
2021/12/19 06:15:35;;;;;;;;;;;20.20;57.50;;;;;;5015926;28;1272;-68
2021/12/19 06:18:00;;;;;;;;;;;20.20;57.40;;;;;;4984574;28;1416;-68
2021/12/19 06:20:28;;;;;;;;;;;20.20;57.40;;;;;;5003551;28;1958;-69
2021/12/19 06:22:53;;;;;;;;;;;20.20;57.40;;;;;;5015261;28;1361;-69
2021/12/19 06:25:19;;;;;;;;;;;20.20;57.50;;;;;;5015201;28;1343;-68
2021/12/19 06:27:44;;;;;;;;;;;20.20;57.40;;;;;;5004328;28;1096;-70
2021/12/19 06:30:10;;;;;;;;;;;20.20;57.40;;;;;;4995473;28;1053;-69
2021/12/19 06:32:35;;;;;;;;;;;20.20;57.40;;;;;;4984882;28;1362;-69
2021/12/19 06:35:06;;;;;;;;;;;20.20;57.40;;;;;;5011393;28;1276;-70
2021/12/19 06:37:35;;;;;;;;;;;20.20;58.00;;;;;;5003557;28;1255;-69
2021/12/19 06:40:01;;;;;;;;;;;20.20;57.40;;;;;;4995480;28;1890;-70
2021/12/19 06:42:27;;;;;;;;;;;20.20;57.40;;;;;;4995368;28;1349;-69
2021/12/19 06:44:52;;;;;;;;;;;20.20;57.40;;;;;;5013392;28;1202;-69
2021/12/19 06:47:17;;;;;;;;;;;20.20;57.40;;;;;;5003465;28;1199;-69
2021/12/19 06:49:43;;;;;;;;;;;20.20;57.50;;;;;;5011868;28;1145;-71
2021/12/19 06:52:08;;;;;;;;;;;20.20;57.40;;;;;;5014806;28;1484;-71
2021/12/19 06:54:34;;;;;;;;;;;20.20;57.40;;;;;;5001662;28;1116;-70
2021/12/19 06:56:59;;;;;;;;;;;20.20;57.40;;;;;;5003296;28;1056;-70
2021/12/19 06:59:25;;;;;;;;;;;20.20;57.40;;;;;;4995523;28;1291;-70
2021/12/19 07:01:50;;;;;;;;;;;20.20;57.40;;;;;;5005948;28;1962;-69
2021/12/19 07:04:15;;;;;;;;;;;20.20;57.40;;;;;;5014425;28;1343;-68
2021/12/19 07:06:41;;;;;;;;;;;20.20;57.40;;;;;;5014132;28;1009;-70
2021/12/19 07:09:06;;;;;;;;;;;20.20;57.50;;;;;;5009394;28;1304;-68
2021/12/19 07:11:32;;;;;;;;;;;20.20;57.40;;;;;;5003369;28;1099;-68
2021/12/19 07:13:57;;;;;;;;;;;20.20;57.40;;;;;;4994332;28;1299;-71
2021/12/19 07:16:23;;;;;;;;;;;20.20;57.40;;;;;;4994572;28;1246;-68
2021/12/19 07:18:48;;;;;;;;;;;20.20;57.40;;;;;;4990821;28;1285;-69
2021/12/19 07:21:13;;;;;;;;;;;20.20;57.40;;;;;;5002883;28;2465;-68
2021/12/19 07:23:39;;;;;;;;;;;20.20;57.40;;;;;;4994534;28;1382;-68
2021/12/19 07:26:05;;;;;;;;;;;20.20;57.40;;;;;;4994497;28;1124;-67
2021/12/19 07:28:31;;;;;;;;;;;20.20;57.40;;;;;;4994717;28;1296;-67
2021/12/19 07:30:57;;;;;;;;;;;20.20;57.40;;;;;;5004036;28;1057;-69
2021/12/19 07:33:22;;;;;;;;;;;20.20;57.40;;;;;;4997384;28;1318;-67
2021/12/19 07:35:49;;;;;;;;;;;20.20;57.40;;;;;;4994254;28;1351;-68
2021/12/19 07:38:25;;;;;;;;;;;20.30;57.50;;;;;;4994247;28;1132;-72
2021/12/19 07:40:51;;;;;;;;;;;20.30;57.40;;;;;;5006476;28;1898;-71
2021/12/19 07:43:17;;;;;;;;;;;20.30;57.30;;;;;;4998504;28;1265;-70
2021/12/19 07:45:42;;;;;;;;;;;20.40;57.20;;;;;;5013454;28;1080;-73
2021/12/19 07:48:08;;;;;;;;;;;20.50;57.00;;;;;;4997256;28;1068;-71
2021/12/19 07:50:33;;;;;;;;;;;20.60;57.00;;;;;;5005751;28;1132;-71
2021/12/19 07:52:58;;;;;;;;;;;20.70;56.80;;;;;;5001419;28;1197;-74
2021/12/19 07:55:24;;;;;;;;;;;20.80;56.50;;;;;;5003763;28;1116;-69
2021/12/19 07:57:49;;;;;;;;;;;21.00;56.40;;;;;;5011790;28;1124;-69
2021/12/19 08:00:15;;;;;;;;;;;21.10;56.10;;;;;;5014309;28;1986;-72
2021/12/19 08:02:41;;;;;;;;;;;21.20;55.90;;;;;;5013015;28;1303;-70
2021/12/19 08:05:06;;;;;;;;;;;21.20;55.70;;;;;;5001976;28;1167;-70
2021/12/19 08:07:32;;;;;;;;;;;21.30;55.50;;;;;;4990052;28;1312;-70
2021/12/19 08:10:14;;;;;;;;;;;21.30;55.30;;;;;;5010217;28;1204;-70
2021/12/19 08:12:40;;;;;;;;;;;21.40;55.20;;;;;;5013287;28;1192;-71
2021/12/19 08:15:06;;;;;;;;;;;21.40;55.10;;;;;;5013847;28;1100;-69
2021/12/19 08:17:31;;;;;;;;;;;21.50;55.10;;;;;;4976990;28;1311;-72
2021/12/19 08:19:57;;;;;;;;;;;21.50;55.00;;;;;;4999689;28;1049;-70
2021/12/19 08:22:23;;;;;;;;;;;21.50;55.00;;;;;;5005199;28;1965;-70
2021/12/19 08:24:50;;;;;;;;;;;21.50;54.90;;;;;;5007278;28;1096;-70
2021/12/19 08:27:15;;;;;;;;;;;21.50;54.90;;;;;;5001110;28;1131;-70
2021/12/19 08:29:40;;;;;;;;;;;21.60;55.00;;;;;;5000851;28;1076;-70
2021/12/19 08:32:06;;;;;;;;;;;21.60;54.90;;;;;;5006001;28;1265;-72
2021/12/19 08:34:31;;;;;;;;;;;21.60;54.90;;;;;;5008179;28;1065;-69
2021/12/19 08:36:57;;;;;;;;;;;21.60;54.80;;;;;;5000139;28;1140;-70
2021/12/19 08:39:22;;;;;;;;;;;21.60;54.80;;;;;;5000731;28;1111;-70
2021/12/19 08:41:48;;;;;;;;;;;21.50;54.80;;;;;;4995888;28;1895;-69
2021/12/19 08:44:13;;;;;;;;;;;21.50;55.40;;;;;;5013723;28;1168;-68
2021/12/19 08:46:40;;;;;;;;;;;21.50;54.90;;;;;;4999188;28;1329;-70
2021/12/19 08:49:06;;;;;;;;;;;21.50;54.90;;;;;;5013769;28;1281;-70
2021/12/19 08:51:32;;;;;;;;;;;21.50;54.90;;;;;;5013792;28;1257;-70
2021/12/19 08:54:00;;;;;;;;;;;21.50;54.90;;;;;;5013175;28;1213;-72
2021/12/19 08:56:25;;;;;;;;;;;21.50;54.90;;;;;;4979567;28;991;-70
2021/12/19 08:58:51;;;;;;;;;;;21.50;55.00;;;;;;5006926;28;1148;-71
2021/12/19 09:01:16;;;;;;;;;;;21.50;55.00;;;;;;4998689;28;1898;-70
2021/12/19 09:03:42;;;;;;;;;;;21.40;55.00;;;;;;5013580;28;1176;-69
2021/12/19 09:06:07;;;;;;;;;;;21.40;55.10;;;;;;5006707;28;1112;-72
2021/12/19 09:08:32;;;;;;;;;;;21.40;55.20;;;;;;5001960;28;1136;-69
2021/12/19 09:10:58;;;;;;;;;;;21.40;55.20;;;;;;5006626;28;1136;-69
2021/12/19 09:13:23;;;;;;;;;;;21.40;55.20;;;;;;5006191;28;1292;-72
2021/12/19 09:15:49;;;;;;;;;;;21.40;55.20;;;;;;4995371;28;1235;-69
2021/12/19 09:18:15;;;;;;;;;;;21.40;55.30;;;;;;5006297;28;1137;-69
2021/12/19 09:20:40;;;;;;;;;;;21.40;55.30;;;;;;5008028;28;1967;-70
2021/12/19 09:23:06;;;;;;;;;;;21.40;55.40;;;;;;5000235;28;1355;-69
2021/12/19 09:25:31;;;;;;;;;;;21.30;55.30;;;;;;5006730;28;1160;-69
2021/12/19 09:27:57;;;;;;;;;;;21.30;55.30;;;;;;5005840;28;1073;-72
2021/12/19 09:30:24;;;;;;;;;;;21.30;55.40;;;;;;4999769;28;1140;-70
2021/12/19 09:32:50;;;;;;;;;;;21.30;55.50;;;;;;4999481;28;1354;-69
2021/12/19 09:35:16;;;;;;;;;;;21.30;55.50;;;;;;5016616;28;1204;-71
2021/12/19 09:37:41;;;;;;;;;;;21.30;55.50;;;;;;5008287;28;994;-69
2021/12/19 09:40:09;;;;;;;;;;;21.30;55.50;;;;;;5017076;28;1910;-70
2021/12/19 09:42:36;;;;;;;;;;;21.30;55.60;;;;;;5017060;28;1368;-69
2021/12/19 09:45:01;;;;;;;;;;;21.30;55.60;;;;;;4996480;28;1195;-73
2021/12/19 09:47:27;;;;;;;;;;;21.20;55.60;;;;;;4989253;28;1301;-72
2021/12/19 09:49:53;;;;;;;;;;;21.20;55.60;;;;;;5015200;28;1191;-72
2021/12/19 09:52:18;;;;;;;;;;;21.20;55.60;;;;;;5016764;28;1328;-72
2021/12/19 09:54:44;;;;;;;;;;;21.20;55.70;;;;;;5016751;28;1140;-72
2021/12/19 09:57:09;;;;;;;;;;;21.20;55.70;;;;;;5016379;28;1092;-72
2021/12/19 09:59:35;;;;;;;;;;;21.20;55.70;;;;;;5016634;28;1125;-72
2021/12/19 10:02:00;;;;;;;;;;;21.20;55.70;;;;;;5016308;28;1960;-71
2021/12/19 10:04:29;;;;;;;;;;;21.20;55.80;;;;;;5016631;28;1148;-71
2021/12/19 10:07:10;;;;;;;;;;;21.20;55.80;;;;;;4998694;28;1311;-72
2021/12/19 10:09:37;;;;;;;;;;;21.20;55.80;;;;;;5012180;28;1163;-71
2021/12/19 10:12:24;;;;;;;;;;;21.20;55.80;;;;;;4996701;28;1320;-72
2021/12/19 10:14:51;;;;;;;;;;;21.20;55.80;;;;;;4987602;28;1309;-72
2021/12/19 10:17:17;;;;;;;;;;;21.10;55.80;;;;;;5014194;28;1157;-73
2021/12/19 10:19:43;;;;;;;;;;;21.20;55.90;;;;;;4995628;28;1332;-72
2021/12/19 10:22:28;;;;;;;;;;;21.20;55.90;;;;;;5011665;28;1972;-72
2021/12/19 10:24:54;;;;;;;;;;;21.10;55.90;;;;;;4996754;28;1323;-73
2021/12/19 10:27:32;;;;;;;;;;;21.10;56.00;;;;;;4978837;28;1624;-72
2021/12/19 10:29:57;;;;;;;;;;;21.10;56.00;;;;;;4996687;28;1286;-73
2021/12/19 10:32:22;;;;;;;;;;;21.10;56.00;;;;;;4984296;28;1399;-72
2021/12/19 10:34:48;;;;;;;;;;;21.00;56.00;;;;;;5010516;28;1158;-73
2021/12/19 10:37:30;;;;;;;;;;;21.00;56.00;;;;;;5015786;28;1351;-72
2021/12/19 10:39:55;;;;;;;;;;;21.00;56.10;;;;;;5015869;28;1381;-72
2021/12/19 10:42:21;;;;;;;;;;;21.00;56.10;;;;;;4998068;28;1946;-70
2021/12/19 10:47:32;;;;;;;;;;;21.00;56.20;;;;;;4996065;28;1105;-72
2021/12/19 10:49:58;;;;;;;;;;;21.00;56.20;;;;;;4996304;28;1220;-72
2021/12/19 10:52:34;;;;;;;;;;;21.00;56.30;;;;;;4995891;28;1343;-72
2021/12/19 10:55:01;;;;;;;;;;;21.00;56.30;;;;;;5003945;28;1294;-72
2021/12/19 10:57:29;;;;;;;;;;;21.00;56.40;;;;;;4996489;28;1357;-72
2021/12/19 10:59:55;;;;;;;;;;;20.90;56.30;;;;;;4983690;28;1370;-73
2021/12/19 11:02:33;;;;;;;;;;;20.90;56.30;;;;;;5009800;28;1887;-72
2021/12/19 11:04:58;;;;;;;;;;;20.90;56.40;;;;;;5015420;28;1279;-72
2021/12/19 11:07:24;;;;;;;;;;;20.90;56.40;;;;;;5015086;28;1265;-72
2021/12/19 11:09:49;;;;;;;;;;;20.90;56.40;;;;;;5011225;28;1163;-72
2021/12/19 11:12:15;;;;;;;;;;;20.90;56.40;;;;;;5015002;28;1264;-72
2021/12/19 11:14:43;;;;;;;;;;;20.90;56.40;;;;;;4998216;28;1360;-73
2021/12/19 11:17:14;;;;;;;;;;;21.00;56.40;;;;;;4998142;28;1190;-73
2021/12/19 11:19:40;;;;;;;;;;;21.00;56.30;;;;;;4989189;28;1077;-72
2021/12/19 11:22:06;;;;;;;;;;;21.00;56.20;;;;;;5014940;28;1987;-72
2021/12/19 11:24:31;;;;;;;;;;;21.10;56.20;;;;;;5015213;28;1356;-72
2021/12/19 11:26:58;;;;;;;;;;;21.10;56.10;;;;;;5014646;28;1332;-72
2021/12/19 11:29:23;;;;;;;;;;;21.10;56.10;;;;;;5015117;28;1280;-72
2021/12/19 11:31:52;;;;;;;;;;;21.10;56.00;;;;;;5014892;28;1393;-72
2021/12/19 11:34:21;;;;;;;;;;;21.10;55.90;;;;;;4994740;28;2207;-72
2021/12/19 11:36:49;;;;;;;;;;;21.20;55.90;;;;;;4992277;28;1701;-72
2021/12/19 11:39:15;;;;;;;;;;;21.20;55.80;;;;;;5003566;28;1606;-71
2021/12/19 11:41:52;;;;;;;;;;;21.20;55.80;;;;;;5011922;28;2143;-72
2021/12/19 11:44:34;;;;;;;;;;;21.20;55.80;;;;;;4993801;28;1207;-72
2021/12/19 11:47:04;;;;;;;;;;;21.20;55.70;;;;;;5008254;28;1108;-72
2021/12/19 11:49:30;;;;;;;;;;;21.20;56.30;;;;;;5004657;28;1108;-72
2021/12/19 11:52:34;;;;;;;;;;;21.20;55.70;;;;;;4999192;28;1371;-72
2021/12/19 11:55:14;;;;;;;;;;;21.20;55.70;;;;;;4934606;29;1330;-72
2021/12/19 11:57:40;;;;;;;;;;;21.20;55.70;;;;;;4933440;29;1346;-72
2021/12/19 12:00:23;;;;;;;;;;;21.20;55.70;;;;;;4962096;28;1300;-72
2021/12/19 12:02:49;;;;;;;;;;;21.20;55.70;;;;;;4996349;28;1231;-72
2021/12/19 12:05:14;;;;;;;;;;;21.20;55.70;;;;;;5001875;28;1274;-73
2021/12/19 12:08:03;;;;;;;;;;;21.20;55.70;;;;;;4994397;28;1268;-72
2021/12/19 12:10:29;;;;;;;;;;;21.20;55.70;;;;;;5006166;28;1351;-73
2021/12/19 12:12:54;;;;;;;;;;;21.20;56.30;;;;;;4996516;28;1391;-72
2021/12/19 12:15:20;;;;;;;;;;;21.20;55.80;;;;;;4999037;28;1298;-72
2021/12/19 12:17:51;;;;;;;;;;;21.20;55.80;;;;;;4981939;28;1342;-71
2021/12/19 12:20:17;;;;;;;;;;;21.20;55.80;;;;;;5007772;28;1990;-70
2021/12/19 12:22:50;;;;;;;;;;;21.20;55.80;;;;;;5013954;28;1346;-71
2021/12/19 12:25:17;;;;;;;;;;;21.10;55.80;;;;;;4996508;28;1343;-70
2021/12/19 12:27:43;;;;;;;;;;;21.20;55.90;;;;;;5008781;28;1352;-70
2021/12/19 12:30:10;;;;;;;;;;;21.20;55.90;;;;;;5009395;28;1279;-71
2021/12/19 12:32:35;;;;;;;;;;;21.20;56.00;;;;;;4993898;28;1687;-71
2021/12/19 12:35:01;;;;;;;;;;;21.10;56.00;;;;;;4990877;28;1400;-71
2021/12/19 12:37:27;;;;;;;;;;;21.10;56.00;;;;;;5004263;28;1296;-70
2021/12/19 12:40:18;;;;;;;;;;;21.10;56.00;;;;;;5013747;28;1253;-70
2021/12/19 12:42:57;;;;;;;;;;;21.10;56.00;;;;;;5012120;28;1387;-70
2021/12/19 12:45:23;;;;;;;;;;;21.10;56.00;;;;;;5013732;28;1268;-71
2021/12/19 12:47:48;;;;;;;;;;;21.10;56.00;;;;;;5013159;28;1265;-71
2021/12/19 12:50:14;;;;;;;;;;;21.10;56.00;;;;;;5013660;28;1329;-71
2021/12/19 12:52:39;;;;;;;;;;;21.10;56.00;;;;;;5013339;28;1276;-70
2021/12/19 12:55:05;;;;;;;;;;;21.10;56.00;;;;;;5013874;28;1351;-71
2021/12/19 12:57:31;;;;;;;;;;;21.10;56.00;;;;;;5012832;28;1252;-71
2021/12/19 12:59:57;;;;;;;;;;;21.10;56.00;;;;;;5013415;28;1292;-70
2021/12/19 13:02:42;;;;;;;;;;;21.10;56.10;;;;;;4995577;28;1902;-71
2021/12/19 13:05:11;;;;;;;;;;;21.10;56.10;;;;;;5013368;28;1339;-71
2021/12/19 13:07:36;;;;;;;;;;;21.10;56.10;;;;;;5013102;28;1338;-71
2021/12/19 13:10:02;;;;;;;;;;;21.10;56.10;;;;;;5008331;28;1111;-69
2021/12/19 13:12:31;;;;;;;;;;;21.10;56.10;;;;;;4995467;28;1310;-71
2021/12/19 13:15:01;;;;;;;;;;;21.10;56.10;;;;;;4995626;28;1287;-71
2021/12/19 13:17:27;;;;;;;;;;;21.10;56.10;;;;;;4994025;28;1327;-70
2021/12/19 13:19:56;;;;;;;;;;;21.10;56.10;;;;;;4988487;28;1296;-70
2021/12/19 13:22:25;;;;;;;;;;;21.10;56.10;;;;;;5009957;28;1989;-71
2021/12/19 13:24:51;;;;;;;;;;;21.00;56.10;;;;;;5012531;28;1232;-70
2021/12/19 13:27:32;;;;;;;;;;;21.10;56.20;;;;;;5008993;28;1984;-70
2021/12/19 13:30:05;;;;;;;;;;;21.00;56.10;;;;;;4990749;28;1413;-70
2021/12/19 13:32:34;;;;;;;;;;;21.00;56.20;;;;;;4987212;28;1709;-70
2021/12/19 13:35:00;;;;;;;;;;;21.00;56.20;;;;;;5012618;28;1324;-70
2021/12/19 13:37:26;;;;;;;;;;;21.00;56.20;;;;;;5004619;28;1155;-71
2021/12/19 13:39:58;;;;;;;;;;;21.00;56.20;;;;;;4992499;28;1344;-71
2021/12/19 13:42:24;;;;;;;;;;;21.00;56.20;;;;;;4999510;28;1902;-70
2021/12/19 13:44:51;;;;;;;;;;;21.00;56.20;;;;;;5008338;28;1314;-70
2021/12/19 13:47:22;;;;;;;;;;;21.00;56.20;;;;;;4993393;28;1051;-70
2021/12/19 13:49:48;;;;;;;;;;;21.00;56.30;;;;;;4990010;28;1328;-69
2021/12/19 13:52:13;;;;;;;;;;;21.00;56.30;;;;;;5003016;28;1395;-69
2021/12/19 13:54:40;;;;;;;;;;;21.00;56.30;;;;;;4995523;28;1368;-70
2021/12/19 13:57:21;;;;;;;;;;;21.00;56.40;;;;;;5000572;28;1316;-70
2021/12/19 13:59:47;;;;;;;;;;;21.00;56.40;;;;;;5000068;28;1257;-70
2021/12/19 14:02:12;;;;;;;;;;;20.90;56.90;;;;;;5012055;28;1894;-70
2021/12/19 14:04:38;;;;;;;;;;;21.00;56.40;;;;;;5012789;28;1249;-69
2021/12/19 14:07:06;;;;;;;;;;;20.90;56.40;;;;;;5012090;28;1253;-70
2021/12/19 14:09:37;;;;;;;;;;;21.00;56.50;;;;;;5008021;28;1150;-68
2021/12/19 14:12:10;;;;;;;;;;;20.90;56.40;;;;;;5012328;28;1296;-70
2021/12/19 14:14:36;;;;;;;;;;;20.90;56.50;;;;;;4995606;28;1985;-70
2021/12/19 14:17:05;;;;;;;;;;;20.90;56.50;;;;;;4996643;28;1224;-71
2021/12/19 14:19:34;;;;;;;;;;;20.90;56.50;;;;;;4997880;28;1271;-70
2021/12/19 14:22:10;;;;;;;;;;;20.90;56.50;;;;;;5015815;28;1963;-70
2021/12/19 14:24:51;;;;;;;;;;;20.90;56.50;;;;;;5016329;28;1284;-70
2021/12/19 14:27:17;;;;;;;;;;;20.90;56.60;;;;;;5015670;28;1348;-70
2021/12/19 14:29:44;;;;;;;;;;;20.90;56.60;;;;;;4998412;28;1409;-70
2021/12/19 14:32:14;;;;;;;;;;;20.90;56.60;;;;;;4996262;28;1286;-69
2021/12/19 14:34:40;;;;;;;;;;;20.90;56.60;;;;;;4998428;28;1085;-67
2021/12/19 14:37:14;;;;;;;;;;;20.80;56.70;;;;;;5007555;28;1331;-68
2021/12/19 14:39:40;;;;;;;;;;;20.80;56.70;;;;;;5011051;28;1058;-68
2021/12/19 14:42:12;;;;;;;;;;;20.80;56.70;;;;;;5006780;28;1966;-68
2021/12/19 14:44:38;;;;;;;;;;;20.80;56.70;;;;;;5009916;28;1144;-68
2021/12/19 14:47:04;;;;;;;;;;;20.80;56.70;;;;;;5005014;28;1146;-68
2021/12/19 14:49:36;;;;;;;;;;;20.80;56.80;;;;;;5001820;28;1072;-68
2021/12/19 14:52:02;;;;;;;;;;;20.80;56.70;;;;;;5006141;28;1361;-67
2021/12/19 14:54:27;;;;;;;;;;;20.80;56.80;;;;;;5009403;28;1156;-67
2021/12/19 14:56:53;;;;;;;;;;;20.80;56.80;;;;;;5004144;28;1292;-67
2021/12/19 14:59:20;;;;;;;;;;;20.80;56.80;;;;;;5002684;28;1033;-67
2021/12/19 15:01:47;;;;;;;;;;;20.80;56.80;;;;;;5015475;28;1898;-67
2021/12/19 15:04:12;;;;;;;;;;;20.80;56.80;;;;;;5011374;28;1131;-69
2021/12/19 15:06:41;;;;;;;;;;;20.80;56.80;;;;;;5005001;28;1076;-69
2021/12/19 15:09:08;;;;;;;;;;;20.70;56.80;;;;;;5001018;28;1135;-68
2021/12/19 15:11:37;;;;;;;;;;;20.80;56.80;;;;;;4996071;28;927;-68
2021/12/19 15:14:03;;;;;;;;;;;20.80;56.90;;;;;;5008884;28;1231;-67
2021/12/19 15:16:30;;;;;;;;;;;20.70;56.80;;;;;;4986649;28;1051;-67
2021/12/19 15:18:55;;;;;;;;;;;20.70;56.90;;;;;;5013578;28;1076;-67
2021/12/19 15:21:21;;;;;;;;;;;20.70;56.90;;;;;;5006757;28;1902;-68
2021/12/19 15:23:46;;;;;;;;;;;20.70;56.90;;;;;;5001986;28;1251;-67
2021/12/19 15:26:15;;;;;;;;;;;20.70;56.90;;;;;;5003628;28;1064;-68
2021/12/19 15:28:42;;;;;;;;;;;20.70;56.90;;;;;;5008390;28;1168;-69
2021/12/19 15:31:08;;;;;;;;;;;20.70;56.90;;;;;;5007165;28;1139;-68
2021/12/19 15:33:33;;;;;;;;;;;20.70;56.90;;;;;;5014737;28;1308;-67
2021/12/19 15:35:59;;;;;;;;;;;20.70;56.90;;;;;;5002992;28;1058;-67